sensor_id;sensor_type;location;lat;lon;timestamp;temperature;humidity
9919;DHT22;4998;51.024;13.828;2022-10-31T00:01:25;15.90;97.70
9919;DHT22;4998;51.024;13.828;2022-10-31T00:03:52;15.80;97.70
9919;DHT22;4998;51.024;13.828;2022-10-31T00:06:20;15.80;97.70
9919;DHT22;4998;51.024;13.828;2022-10-31T00:08:52;15.80;97.80
9919;DHT22;4998;51.024;13.828;2022-10-31T00:11:20;15.80;97.90
9919;DHT22;4998;51.024;13.828;2022-10-31T00:13:47;15.80;97.80
9919;DHT22;4998;51.024;13.828;2022-10-31T00:16:15;15.80;97.80
9919;DHT22;4998;51.024;13.828;2022-10-31T00:18:42;15.80;97.80
9919;DHT22;4998;51.024;13.828;2022-10-31T00:21:09;15.80;97.80
9919;DHT22;4998;51.024;13.828;2022-10-31T00:23:37;15.70;97.80
9919;DHT22;4998;51.024;13.828;2022-10-31T00:26:04;15.70;97.90
9919;DHT22;4998;51.024;13.828;2022-10-31T00:28:32;15.70;97.80
9919;DHT22;4998;51.024;13.828;2022-10-31T00:30:59;15.70;97.80
9919;DHT22;4998;51.024;13.828;2022-10-31T00:33:26;15.60;97.80
9919;DHT22;4998;51.024;13.828;2022-10-31T00:35:53;15.60;97.80
9919;DHT22;4998;51.024;13.828;2022-10-31T00:38:20;15.60;97.90
9919;DHT22;4998;51.024;13.828;2022-10-31T00:40:49;15.60;97.90
9919;DHT22;4998;51.024;13.828;2022-10-31T00:43:16;15.60;98.00
9919;DHT22;4998;51.024;13.828;2022-10-31T00:45:43;15.60;98.20
9919;DHT22;4998;51.024;13.828;2022-10-31T00:48:10;15.50;98.00
9919;DHT22;4998;51.024;13.828;2022-10-31T00:50:37;15.50;97.90
9919;DHT22;4998;51.024;13.828;2022-10-31T00:53:04;15.50;98.00
9919;DHT22;4998;51.024;13.828;2022-10-31T00:55:32;15.50;98.00
9919;DHT22;4998;51.024;13.828;2022-10-31T00:58:00;15.50;98.00
9919;DHT22;4998;51.024;13.828;2022-10-31T01:00:27;15.50;98.10
9919;DHT22;4998;51.024;13.828;2022-10-31T01:02:53;15.40;98.10
9919;DHT22;4998;51.024;13.828;2022-10-31T01:05:20;15.40;98.10
9919;DHT22;4998;51.024;13.828;2022-10-31T01:07:47;15.40;98.10
9919;DHT22;4998;51.024;13.828;2022-10-31T01:10:14;15.30;98.10
9919;DHT22;4998;51.024;13.828;2022-10-31T01:12:43;15.30;98.10
9919;DHT22;4998;51.024;13.828;2022-10-31T01:15:12;15.30;98.20
9919;DHT22;4998;51.024;13.828;2022-10-31T01:17:40;15.30;98.30
9919;DHT22;4998;51.024;13.828;2022-10-31T01:20:09;15.30;98.30
9919;DHT22;4998;51.024;13.828;2022-10-31T01:22:36;15.20;98.30
9919;DHT22;4998;51.024;13.828;2022-10-31T01:25:04;15.20;98.20
9919;DHT22;4998;51.024;13.828;2022-10-31T01:27:32;15.20;98.30
9919;DHT22;4998;51.024;13.828;2022-10-31T01:29:58;15.30;98.30
9919;DHT22;4998;51.024;13.828;2022-10-31T01:32:28;15.20;98.30
9919;DHT22;4998;51.024;13.828;2022-10-31T01:34:55;15.20;98.40
9919;DHT22;4998;51.024;13.828;2022-10-31T01:37:22;15.10;98.40
9919;DHT22;4998;51.024;13.828;2022-10-31T01:39:49;15.20;98.40
9919;DHT22;4998;51.024;13.828;2022-10-31T01:42:18;15.10;98.40
9919;DHT22;4998;51.024;13.828;2022-10-31T01:44:52;15.10;98.50
9919;DHT22;4998;51.024;13.828;2022-10-31T01:47:24;15.10;98.60
9919;DHT22;4998;51.024;13.828;2022-10-31T01:49:57;15.10;98.50
9919;DHT22;4998;51.024;13.828;2022-10-31T01:52:27;15.10;98.50
9919;DHT22;4998;51.024;13.828;2022-10-31T01:54:58;15.10;98.50
9919;DHT22;4998;51.024;13.828;2022-10-31T01:57:26;15.00;98.80
9919;DHT22;4998;51.024;13.828;2022-10-31T01:59:56;15.00;98.50
9919;DHT22;4998;51.024;13.828;2022-10-31T02:02:25;15.00;98.50
9919;DHT22;4998;51.024;13.828;2022-10-31T02:04:54;15.00;98.40
9919;DHT22;4998;51.024;13.828;2022-10-31T02:07:25;15.00;98.50
9919;DHT22;4998;51.024;13.828;2022-10-31T02:09:54;14.90;98.40
9919;DHT22;4998;51.024;13.828;2022-10-31T02:12:21;14.90;98.40
9919;DHT22;4998;51.024;13.828;2022-10-31T02:14:48;14.90;98.40
9919;DHT22;4998;51.024;13.828;2022-10-31T02:17:15;14.90;98.30
9919;DHT22;4998;51.024;13.828;2022-10-31T02:19:49;14.80;98.30
9919;DHT22;4998;51.024;13.828;2022-10-31T02:22:23;14.80;98.50
9919;DHT22;4998;51.024;13.828;2022-10-31T02:25:03;14.80;98.50
9919;DHT22;4998;51.024;13.828;2022-10-31T02:27:52;14.80;98.50
9919;DHT22;4998;51.024;13.828;2022-10-31T02:30:24;14.70;98.40
9919;DHT22;4998;51.024;13.828;2022-10-31T02:33:08;14.70;98.30
9919;DHT22;4998;51.024;13.828;2022-10-31T02:35:43;14.70;98.50
9919;DHT22;4998;51.024;13.828;2022-10-31T02:38:24;14.60;98.40
9919;DHT22;4998;51.024;13.828;2022-10-31T02:40:59;14.60;98.50
9919;DHT22;4998;51.024;13.828;2022-10-31T02:43:31;14.60;98.40
9919;DHT22;4998;51.024;13.828;2022-10-31T02:46:07;14.60;98.40
9919;DHT22;4998;51.024;13.828;2022-10-31T02:48:38;14.50;98.50
9919;DHT22;4998;51.024;13.828;2022-10-31T02:51:07;14.50;98.50
9919;DHT22;4998;51.024;13.828;2022-10-31T02:53:35;14.50;98.60
9919;DHT22;4998;51.024;13.828;2022-10-31T02:56:06;14.50;98.60
9919;DHT22;4998;51.024;13.828;2022-10-31T02:58:38;14.50;98.70
9919;DHT22;4998;51.024;13.828;2022-10-31T03:01:21;14.40;98.60
9919;DHT22;4998;51.024;13.828;2022-10-31T03:06:45;14.40;98.70
9919;DHT22;4998;51.024;13.828;2022-10-31T03:09:22;14.40;98.70
9919;DHT22;4998;51.024;13.828;2022-10-31T03:11:56;14.30;98.70
9919;DHT22;4998;51.024;13.828;2022-10-31T03:14:28;14.30;98.70
9919;DHT22;4998;51.024;13.828;2022-10-31T03:17:00;14.30;98.70
9919;DHT22;4998;51.024;13.828;2022-10-31T03:19:31;14.30;98.80
9919;DHT22;4998;51.024;13.828;2022-10-31T03:22:01;14.20;98.80
9919;DHT22;4998;51.024;13.828;2022-10-31T03:24:34;14.20;98.80
9919;DHT22;4998;51.024;13.828;2022-10-31T03:27:04;14.20;98.80
9919;DHT22;4998;51.024;13.828;2022-10-31T03:29:35;14.20;98.90
9919;DHT22;4998;51.024;13.828;2022-10-31T03:32:06;14.20;98.90
9919;DHT22;4998;51.024;13.828;2022-10-31T03:34:35;14.10;98.90
9919;DHT22;4998;51.024;13.828;2022-10-31T03:37:07;14.10;98.90
9919;DHT22;4998;51.024;13.828;2022-10-31T03:39:34;14.10;99.00
9919;DHT22;4998;51.024;13.828;2022-10-31T03:42:05;14.10;99.00
9919;DHT22;4998;51.024;13.828;2022-10-31T03:44:33;14.10;99.10
9919;DHT22;4998;51.024;13.828;2022-10-31T03:47:01;14.10;99.10
9919;DHT22;4998;51.024;13.828;2022-10-31T03:49:30;14.10;99.10
9919;DHT22;4998;51.024;13.828;2022-10-31T03:52:03;14.10;99.00
9919;DHT22;4998;51.024;13.828;2022-10-31T03:54:37;14.10;99.10
9919;DHT22;4998;51.024;13.828;2022-10-31T03:57:10;14.10;99.00
9919;DHT22;4998;51.024;13.828;2022-10-31T03:59:43;14.00;99.00
9919;DHT22;4998;51.024;13.828;2022-10-31T04:02:14;14.00;99.00
9919;DHT22;4998;51.024;13.828;2022-10-31T04:04:43;14.00;99.10
9919;DHT22;4998;51.024;13.828;2022-10-31T04:07:13;14.00;99.00
9919;DHT22;4998;51.024;13.828;2022-10-31T04:09:42;14.00;99.00
9919;DHT22;4998;51.024;13.828;2022-10-31T04:12:12;14.00;99.30
9919;DHT22;4998;51.024;13.828;2022-10-31T04:14:43;13.90;98.90
9919;DHT22;4998;51.024;13.828;2022-10-31T04:17:15;14.00;99.00
9919;DHT22;4998;51.024;13.828;2022-10-31T04:19:44;13.90;99.00
9919;DHT22;4998;51.024;13.828;2022-10-31T04:22:12;13.90;99.00
9919;DHT22;4998;51.024;13.828;2022-10-31T04:24:39;13.90;99.00
9919;DHT22;4998;51.024;13.828;2022-10-31T04:27:07;13.90;99.00
9919;DHT22;4998;51.024;13.828;2022-10-31T04:29:33;13.90;99.00
9919;DHT22;4998;51.024;13.828;2022-10-31T04:32:00;13.90;99.00
9919;DHT22;4998;51.024;13.828;2022-10-31T04:34:27;13.80;99.00
9919;DHT22;4998;51.024;13.828;2022-10-31T04:36:54;13.80;98.90
9919;DHT22;4998;51.024;13.828;2022-10-31T04:39:22;13.80;98.90
9919;DHT22;4998;51.024;13.828;2022-10-31T04:41:49;13.80;98.90
9919;DHT22;4998;51.024;13.828;2022-10-31T04:44:16;13.80;98.90
9919;DHT22;4998;51.024;13.828;2022-10-31T04:46:43;13.80;99.00
9919;DHT22;4998;51.024;13.828;2022-10-31T04:49:09;13.70;98.90
9919;DHT22;4998;51.024;13.828;2022-10-31T04:51:36;13.70;99.00
9919;DHT22;4998;51.024;13.828;2022-10-31T04:54:03;13.70;99.00
9919;DHT22;4998;51.024;13.828;2022-10-31T04:56:31;13.70;99.00
9919;DHT22;4998;51.024;13.828;2022-10-31T04:58:58;13.70;99.30
9919;DHT22;4998;51.024;13.828;2022-10-31T05:01:25;13.70;98.80
9919;DHT22;4998;51.024;13.828;2022-10-31T05:03:53;13.60;98.80
9919;DHT22;4998;51.024;13.828;2022-10-31T05:06:20;13.60;98.80
9919;DHT22;4998;51.024;13.828;2022-10-31T05:08:46;13.60;98.80
9919;DHT22;4998;51.024;13.828;2022-10-31T05:11:13;13.60;98.80
9919;DHT22;4998;51.024;13.828;2022-10-31T05:13:42;13.60;98.80
9919;DHT22;4998;51.024;13.828;2022-10-31T05:16:09;13.50;98.90
9919;DHT22;4998;51.024;13.828;2022-10-31T05:18:35;13.50;98.90
9919;DHT22;4998;51.024;13.828;2022-10-31T05:21:02;13.50;98.90
9919;DHT22;4998;51.024;13.828;2022-10-31T05:23:29;13.50;99.00
9919;DHT22;4998;51.024;13.828;2022-10-31T05:25:56;13.40;98.90
9919;DHT22;4998;51.024;13.828;2022-10-31T05:28:23;13.50;99.00
9919;DHT22;4998;51.024;13.828;2022-10-31T05:30:51;13.40;99.00
9919;DHT22;4998;51.024;13.828;2022-10-31T05:33:18;13.40;99.00
9919;DHT22;4998;51.024;13.828;2022-10-31T05:35:45;13.40;99.00
9919;DHT22;4998;51.024;13.828;2022-10-31T05:38:12;13.40;99.00
9919;DHT22;4998;51.024;13.828;2022-10-31T05:40:38;13.40;99.00
9919;DHT22;4998;51.024;13.828;2022-10-31T05:43:05;13.40;99.00
9919;DHT22;4998;51.024;13.828;2022-10-31T05:45:32;13.30;98.90
9919;DHT22;4998;51.024;13.828;2022-10-31T05:48:01;13.30;98.90
9919;DHT22;4998;51.024;13.828;2022-10-31T05:50:30;13.30;99.00
9919;DHT22;4998;51.024;13.828;2022-10-31T05:52:59;13.30;99.00
9919;DHT22;4998;51.024;13.828;2022-10-31T05:55:27;13.30;99.00
9919;DHT22;4998;51.024;13.828;2022-10-31T05:57:54;13.30;99.00
9919;DHT22;4998;51.024;13.828;2022-10-31T06:00:22;13.30;99.00
9919;DHT22;4998;51.024;13.828;2022-10-31T06:02:49;13.30;99.00
9919;DHT22;4998;51.024;13.828;2022-10-31T06:05:17;13.20;99.00
9919;DHT22;4998;51.024;13.828;2022-10-31T06:07:44;13.20;99.10
9919;DHT22;4998;51.024;13.828;2022-10-31T06:10:11;13.30;99.50
9919;DHT22;4998;51.024;13.828;2022-10-31T06:12:38;13.20;99.10
9919;DHT22;4998;51.024;13.828;2022-10-31T06:15:07;13.20;99.20
9919;DHT22;4998;51.024;13.828;2022-10-31T06:17:34;13.20;99.20
9919;DHT22;4998;51.024;13.828;2022-10-31T06:20:03;13.10;99.20
9919;DHT22;4998;51.024;13.828;2022-10-31T06:22:32;13.20;99.40
9919;DHT22;4998;51.024;13.828;2022-10-31T06:24:59;13.10;99.40
9919;DHT22;4998;51.024;13.828;2022-10-31T06:27:26;13.10;99.50
9919;DHT22;4998;51.024;13.828;2022-10-31T06:29:53;13.10;99.60
9919;DHT22;4998;51.024;13.828;2022-10-31T06:32:20;13.10;99.60
9919;DHT22;4998;51.024;13.828;2022-10-31T06:34:47;13.10;99.70
9919;DHT22;4998;51.024;13.828;2022-10-31T06:37:14;13.20;99.90
9919;DHT22;4998;51.024;13.828;2022-10-31T06:39:43;13.20;99.90
9919;DHT22;4998;51.024;13.828;2022-10-31T06:42:10;13.20;99.90
9919;DHT22;4998;51.024;13.828;2022-10-31T06:44:36;13.20;99.90
9919;DHT22;4998;51.024;13.828;2022-10-31T06:47:04;13.30;99.90
9919;DHT22;4998;51.024;13.828;2022-10-31T06:49:31;13.30;99.90
9919;DHT22;4998;51.024;13.828;2022-10-31T06:51:58;13.30;99.90
9919;DHT22;4998;51.024;13.828;2022-10-31T06:54:25;13.40;99.90
9919;DHT22;4998;51.024;13.828;2022-10-31T06:56:53;13.50;99.90
9919;DHT22;4998;51.024;13.828;2022-10-31T06:59:20;13.50;99.90
9919;DHT22;4998;51.024;13.828;2022-10-31T07:01:47;13.50;99.90
9919;DHT22;4998;51.024;13.828;2022-10-31T07:04:14;13.60;99.90
9919;DHT22;4998;51.024;13.828;2022-10-31T07:06:41;13.60;99.90
9919;DHT22;4998;51.024;13.828;2022-10-31T07:09:08;13.70;99.90
9919;DHT22;4998;51.024;13.828;2022-10-31T07:11:34;13.70;99.90
9919;DHT22;4998;51.024;13.828;2022-10-31T07:14:03;13.80;99.90
9919;DHT22;4998;51.024;13.828;2022-10-31T07:16:30;13.80;99.90
9919;DHT22;4998;51.024;13.828;2022-10-31T07:18:57;13.90;99.90
9919;DHT22;4998;51.024;13.828;2022-10-31T07:21:23;13.90;99.90
9919;DHT22;4998;51.024;13.828;2022-10-31T07:23:50;14.00;99.90
9919;DHT22;4998;51.024;13.828;2022-10-31T07:26:17;14.00;99.90
9919;DHT22;4998;51.024;13.828;2022-10-31T07:28:45;14.10;99.90
9919;DHT22;4998;51.024;13.828;2022-10-31T07:31:14;14.10;99.90
9919;DHT22;4998;51.024;13.828;2022-10-31T07:33:40;14.20;99.90
9919;DHT22;4998;51.024;13.828;2022-10-31T07:36:07;14.20;99.90
9919;DHT22;4998;51.024;13.828;2022-10-31T07:38:34;14.30;99.90
9919;DHT22;4998;51.024;13.828;2022-10-31T07:41:01;14.30;99.90
9919;DHT22;4998;51.024;13.828;2022-10-31T07:43:28;14.40;99.90
9919;DHT22;4998;51.024;13.828;2022-10-31T07:45:55;14.40;99.90
9919;DHT22;4998;51.024;13.828;2022-10-31T07:48:23;14.40;99.90
9919;DHT22;4998;51.024;13.828;2022-10-31T07:50:50;14.50;99.90
9919;DHT22;4998;51.024;13.828;2022-10-31T07:53:17;14.50;99.90
9919;DHT22;4998;51.024;13.828;2022-10-31T07:55:44;14.60;99.90
9919;DHT22;4998;51.024;13.828;2022-10-31T07:58:12;14.60;99.90
9919;DHT22;4998;51.024;13.828;2022-10-31T08:00:42;14.60;99.90
9919;DHT22;4998;51.024;13.828;2022-10-31T08:03:10;14.70;99.90
9919;DHT22;4998;51.024;13.828;2022-10-31T08:05:39;14.80;99.90
9919;DHT22;4998;51.024;13.828;2022-10-31T08:08:07;14.80;99.90
9919;DHT22;4998;51.024;13.828;2022-10-31T08:10:34;14.80;99.90
9919;DHT22;4998;51.024;13.828;2022-10-31T08:13:03;14.80;99.90
9919;DHT22;4998;51.024;13.828;2022-10-31T08:15:30;14.90;99.90
9919;DHT22;4998;51.024;13.828;2022-10-31T08:17:59;14.90;99.90
9919;DHT22;4998;51.024;13.828;2022-10-31T08:20:27;15.00;99.90
9919;DHT22;4998;51.024;13.828;2022-10-31T08:23:00;15.00;99.90
9919;DHT22;4998;51.024;13.828;2022-10-31T08:25:29;15.10;99.90
9919;DHT22;4998;51.024;13.828;2022-10-31T08:27:56;15.10;99.90
9919;DHT22;4998;51.024;13.828;2022-10-31T08:30:25;15.20;99.90
9919;DHT22;4998;51.024;13.828;2022-10-31T08:33:00;15.20;99.90
9919;DHT22;4998;51.024;13.828;2022-10-31T08:35:27;15.30;99.90
9919;DHT22;4998;51.024;13.828;2022-10-31T08:37:54;15.30;99.90
9919;DHT22;4998;51.024;13.828;2022-10-31T08:40:23;15.40;99.90
9919;DHT22;4998;51.024;13.828;2022-10-31T08:42:56;15.40;99.90
9919;DHT22;4998;51.024;13.828;2022-10-31T08:45:23;15.50;99.90
9919;DHT22;4998;51.024;13.828;2022-10-31T08:47:51;15.50;99.90
9919;DHT22;4998;51.024;13.828;2022-10-31T08:50:18;15.60;99.90
9919;DHT22;4998;51.024;13.828;2022-10-31T08:52:45;15.60;99.90
9919;DHT22;4998;51.024;13.828;2022-10-31T08:55:12;15.70;99.90
9919;DHT22;4998;51.024;13.828;2022-10-31T08:57:40;15.70;99.90
9919;DHT22;4998;51.024;13.828;2022-10-31T09:00:08;15.80;99.90
9919;DHT22;4998;51.024;13.828;2022-10-31T09:02:35;15.80;99.90
9919;DHT22;4998;51.024;13.828;2022-10-31T09:05:04;15.90;99.90
9919;DHT22;4998;51.024;13.828;2022-10-31T09:07:31;16.00;99.90
9919;DHT22;4998;51.024;13.828;2022-10-31T09:09:58;16.10;99.90
9919;DHT22;4998;51.024;13.828;2022-10-31T09:12:25;16.10;99.90
9919;DHT22;4998;51.024;13.828;2022-10-31T09:14:53;16.20;99.90
9919;DHT22;4998;51.024;13.828;2022-10-31T09:17:20;16.20;99.90
9919;DHT22;4998;51.024;13.828;2022-10-31T09:19:46;16.30;99.90
9919;DHT22;4998;51.024;13.828;2022-10-31T09:22:14;16.40;99.90
9919;DHT22;4998;51.024;13.828;2022-10-31T09:24:41;16.30;99.90
9919;DHT22;4998;51.024;13.828;2022-10-31T09:27:07;16.50;99.90
9919;DHT22;4998;51.024;13.828;2022-10-31T09:29:35;16.60;99.90
9919;DHT22;4998;51.024;13.828;2022-10-31T09:32:03;16.60;99.90
9919;DHT22;4998;51.024;13.828;2022-10-31T09:34:30;16.70;99.90
9919;DHT22;4998;51.024;13.828;2022-10-31T09:36:57;16.80;99.90
9919;DHT22;4998;51.024;13.828;2022-10-31T09:39:24;16.80;99.90
9919;DHT22;4998;51.024;13.828;2022-10-31T09:42:01;16.90;99.90
9919;DHT22;4998;51.024;13.828;2022-10-31T09:44:37;17.00;99.90
9919;DHT22;4998;51.024;13.828;2022-10-31T09:47:13;17.10;99.90
9919;DHT22;4998;51.024;13.828;2022-10-31T09:49:55;17.10;99.90
9919;DHT22;4998;51.024;13.828;2022-10-31T09:52:29;17.20;99.90
9919;DHT22;4998;51.024;13.828;2022-10-31T09:54:59;17.30;99.90
9919;DHT22;4998;51.024;13.828;2022-10-31T09:57:32;17.40;99.90
9919;DHT22;4998;51.024;13.828;2022-10-31T10:00:00;17.40;99.90
9919;DHT22;4998;51.024;13.828;2022-10-31T10:02:32;17.60;99.90
9919;DHT22;4998;51.024;13.828;2022-10-31T10:05:03;17.60;99.90
9919;DHT22;4998;51.024;13.828;2022-10-31T10:07:38;17.70;99.90
9919;DHT22;4998;51.024;13.828;2022-10-31T10:10:14;17.70;99.90
9919;DHT22;4998;51.024;13.828;2022-10-31T10:12:53;17.80;99.90
9919;DHT22;4998;51.024;13.828;2022-10-31T10:15:48;17.90;99.90
9919;DHT22;4998;51.024;13.828;2022-10-31T10:18:26;18.00;99.90
9919;DHT22;4998;51.024;13.828;2022-10-31T10:21:04;18.10;99.90
9919;DHT22;4998;51.024;13.828;2022-10-31T10:23:42;18.20;99.90
9919;DHT22;4998;51.024;13.828;2022-10-31T10:26:17;18.30;99.80
9919;DHT22;4998;51.024;13.828;2022-10-31T10:28:47;18.40;99.70
9919;DHT22;4998;51.024;13.828;2022-10-31T10:31:18;18.50;99.60
9919;DHT22;4998;51.024;13.828;2022-10-31T10:33:58;18.60;99.50
9919;DHT22;4998;51.024;13.828;2022-10-31T10:36:30;18.60;99.10
9919;DHT22;4998;51.024;13.828;2022-10-31T10:39:04;18.70;99.20
9919;DHT22;4998;51.024;13.828;2022-10-31T10:41:32;18.80;98.90
9919;DHT22;4998;51.024;13.828;2022-10-31T10:43:59;18.90;98.80
9919;DHT22;4998;51.024;13.828;2022-10-31T10:46:34;19.00;98.70
9919;DHT22;4998;51.024;13.828;2022-10-31T10:49:31;19.10;98.40
9919;DHT22;4998;51.024;13.828;2022-10-31T10:52:06;19.20;98.10
9919;DHT22;4998;51.024;13.828;2022-10-31T10:54:46;19.30;98.00
9919;DHT22;4998;51.024;13.828;2022-10-31T10:57:29;19.40;97.90
9919;DHT22;4998;51.024;13.828;2022-10-31T10:59:59;19.50;97.60
9919;DHT22;4998;51.024;13.828;2022-10-31T11:02:31;19.60;98.00
9919;DHT22;4998;51.024;13.828;2022-10-31T11:05:01;19.70;97.40
9919;DHT22;4998;51.024;13.828;2022-10-31T11:07:37;19.70;97.20
9919;DHT22;4998;51.024;13.828;2022-10-31T11:10:06;19.80;96.90
9919;DHT22;4998;51.024;13.828;2022-10-31T11:12:39;19.90;97.00
9919;DHT22;4998;51.024;13.828;2022-10-31T11:15:18;20.00;96.80
9919;DHT22;4998;51.024;13.828;2022-10-31T11:17:48;20.10;96.60
9919;DHT22;4998;51.024;13.828;2022-10-31T11:20:28;20.20;96.50
9919;DHT22;4998;51.024;13.828;2022-10-31T11:23:13;20.30;96.30
9919;DHT22;4998;51.024;13.828;2022-10-31T11:25:49;20.40;96.20
9919;DHT22;4998;51.024;13.828;2022-10-31T11:28:17;20.40;96.10
9919;DHT22;4998;51.024;13.828;2022-10-31T11:30:45;20.50;96.20
9919;DHT22;4998;51.024;13.828;2022-10-31T11:33:19;20.50;95.90
9919;DHT22;4998;51.024;13.828;2022-10-31T11:35:48;20.60;95.60
9919;DHT22;4998;51.024;13.828;2022-10-31T11:38:18;20.70;95.50
9919;DHT22;4998;51.024;13.828;2022-10-31T11:40:54;20.70;95.50
9919;DHT22;4998;51.024;13.828;2022-10-31T11:43:22;20.80;95.50
9919;DHT22;4998;51.024;13.828;2022-10-31T11:45:50;20.80;95.50
9919;DHT22;4998;51.024;13.828;2022-10-31T11:48:19;20.90;95.40
9919;DHT22;4998;51.024;13.828;2022-10-31T11:50:50;21.00;95.20
9919;DHT22;4998;51.024;13.828;2022-10-31T11:53:21;21.00;95.10
9919;DHT22;4998;51.024;13.828;2022-10-31T11:56:02;21.00;95.00
9919;DHT22;4998;51.024;13.828;2022-10-31T11:58:29;21.10;94.90
9919;DHT22;4998;51.024;13.828;2022-10-31T12:00:57;21.10;95.00
9919;DHT22;4998;51.024;13.828;2022-10-31T12:03:45;21.20;94.80
9919;DHT22;4998;51.024;13.828;2022-10-31T12:06:22;21.20;94.70
9919;DHT22;4998;51.024;13.828;2022-10-31T12:08:50;21.30;94.50
9919;DHT22;4998;51.024;13.828;2022-10-31T12:11:31;21.30;94.50
9919;DHT22;4998;51.024;13.828;2022-10-31T12:14:12;21.40;94.30
9919;DHT22;4998;51.024;13.828;2022-10-31T12:16:48;21.50;94.10
9919;DHT22;4998;51.024;13.828;2022-10-31T12:19:22;21.50;93.90
9919;DHT22;4998;51.024;13.828;2022-10-31T12:22:04;21.50;94.00
9919;DHT22;4998;51.024;13.828;2022-10-31T12:24:52;21.60;93.90
9919;DHT22;4998;51.024;13.828;2022-10-31T12:27:31;21.60;93.70
9919;DHT22;4998;51.024;13.828;2022-10-31T12:30:14;21.60;93.70
9919;DHT22;4998;51.024;13.828;2022-10-31T12:33:04;21.70;93.50
9919;DHT22;4998;51.024;13.828;2022-10-31T12:35:55;21.70;93.40
9919;DHT22;4998;51.024;13.828;2022-10-31T12:38:44;21.70;93.20
9919;DHT22;4998;51.024;13.828;2022-10-31T12:41:26;21.80;93.30
9919;DHT22;4998;51.024;13.828;2022-10-31T12:44:00;21.80;93.10
9919;DHT22;4998;51.024;13.828;2022-10-31T12:46:51;21.70;92.90
9919;DHT22;4998;51.024;13.828;2022-10-31T12:49:40;21.90;92.90
9919;DHT22;4998;51.024;13.828;2022-10-31T12:52:25;21.90;92.80
9919;DHT22;4998;51.024;13.828;2022-10-31T12:55:06;22.00;92.70
9919;DHT22;4998;51.024;13.828;2022-10-31T12:57:39;22.10;92.50
9919;DHT22;4998;51.024;13.828;2022-10-31T13:00:12;22.10;92.40
9919;DHT22;4998;51.024;13.828;2022-10-31T13:02:43;22.10;92.20
9919;DHT22;4998;51.024;13.828;2022-10-31T13:05:16;22.20;92.10
9919;DHT22;4998;51.024;13.828;2022-10-31T13:07:48;22.10;91.90
9919;DHT22;4998;51.024;13.828;2022-10-31T13:10:20;22.20;91.80
9919;DHT22;4998;51.024;13.828;2022-10-31T13:12:53;22.20;91.60
9919;DHT22;4998;51.024;13.828;2022-10-31T13:15:24;22.20;91.60
9919;DHT22;4998;51.024;13.828;2022-10-31T13:17:54;22.20;91.60
9919;DHT22;4998;51.024;13.828;2022-10-31T13:20:28;22.30;91.40
9919;DHT22;4998;51.024;13.828;2022-10-31T13:23:00;22.30;91.10
9919;DHT22;4998;51.024;13.828;2022-10-31T13:25:33;22.30;91.00
9919;DHT22;4998;51.024;13.828;2022-10-31T13:28:12;22.30;90.80
9919;DHT22;4998;51.024;13.828;2022-10-31T13:30:42;22.30;90.70
9919;DHT22;4998;51.024;13.828;2022-10-31T13:33:13;22.30;90.80
9919;DHT22;4998;51.024;13.828;2022-10-31T13:35:43;22.30;90.60
9919;DHT22;4998;51.024;13.828;2022-10-31T13:38:18;22.30;90.40
9919;DHT22;4998;51.024;13.828;2022-10-31T13:40:53;22.30;90.30
9919;DHT22;4998;51.024;13.828;2022-10-31T13:43:28;22.30;90.30
9919;DHT22;4998;51.024;13.828;2022-10-31T13:45:58;22.40;90.20
9919;DHT22;4998;51.024;13.828;2022-10-31T13:48:37;22.40;90.30
9919;DHT22;4998;51.024;13.828;2022-10-31T13:51:06;22.40;90.00
9919;DHT22;4998;51.024;13.828;2022-10-31T13:53:39;22.40;90.00
9919;DHT22;4998;51.024;13.828;2022-10-31T13:56:15;22.40;89.70
9919;DHT22;4998;51.024;13.828;2022-10-31T13:58:58;22.40;89.50
9919;DHT22;4998;51.024;13.828;2022-10-31T14:01:27;22.40;89.40
9919;DHT22;4998;51.024;13.828;2022-10-31T14:04:01;22.40;89.40
9919;DHT22;4998;51.024;13.828;2022-10-31T14:06:41;22.40;89.10
9919;DHT22;4998;51.024;13.828;2022-10-31T14:09:22;22.40;89.00
9919;DHT22;4998;51.024;13.828;2022-10-31T14:11:52;22.50;88.80
9919;DHT22;4998;51.024;13.828;2022-10-31T14:14:21;22.50;88.70
9919;DHT22;4998;51.024;13.828;2022-10-31T14:16:54;22.50;88.60
9919;DHT22;4998;51.024;13.828;2022-10-31T14:19:22;22.40;88.00
9919;DHT22;4998;51.024;13.828;2022-10-31T14:21:50;22.50;88.30
9919;DHT22;4998;51.024;13.828;2022-10-31T14:24:33;22.50;88.00
9919;DHT22;4998;51.024;13.828;2022-10-31T14:27:03;22.50;87.80
9919;DHT22;4998;51.024;13.828;2022-10-31T14:29:31;22.40;87.60
9919;DHT22;4998;51.024;13.828;2022-10-31T14:32:06;22.50;87.70
9919;DHT22;4998;51.024;13.828;2022-10-31T14:34:41;22.40;87.10
9919;DHT22;4998;51.024;13.828;2022-10-31T14:37:18;22.40;87.40
9919;DHT22;4998;51.024;13.828;2022-10-31T14:40:11;22.50;87.10
9919;DHT22;4998;51.024;13.828;2022-10-31T14:42:52;22.40;87.10
9919;DHT22;4998;51.024;13.828;2022-10-31T14:45:28;22.40;86.80
9919;DHT22;4998;51.024;13.828;2022-10-31T14:48:08;22.30;86.50
9919;DHT22;4998;51.024;13.828;2022-10-31T14:50:45;22.30;86.40
9919;DHT22;4998;51.024;13.828;2022-10-31T14:53:18;22.30;86.20
9919;DHT22;4998;51.024;13.828;2022-10-31T14:55:48;22.30;86.20
9919;DHT22;4998;51.024;13.828;2022-10-31T14:58:20;22.20;86.20
9919;DHT22;4998;51.024;13.828;2022-10-31T15:00:48;22.20;86.20
9919;DHT22;4998;51.024;13.828;2022-10-31T15:03:22;22.10;86.30
9919;DHT22;4998;51.024;13.828;2022-10-31T15:05:52;22.10;86.10
9919;DHT22;4998;51.024;13.828;2022-10-31T15:08:31;22.10;86.40
9919;DHT22;4998;51.024;13.828;2022-10-31T15:11:03;22.10;86.30
9919;DHT22;4998;51.024;13.828;2022-10-31T15:13:31;21.90;86.40
9919;DHT22;4998;51.024;13.828;2022-10-31T15:15:58;21.80;86.80
9919;DHT22;4998;51.024;13.828;2022-10-31T15:18:27;21.80;86.80
9919;DHT22;4998;51.024;13.828;2022-10-31T15:20:56;21.70;86.60
9919;DHT22;4998;51.024;13.828;2022-10-31T15:23:25;21.70;86.80
9919;DHT22;4998;51.024;13.828;2022-10-31T15:25:58;21.60;86.80
9919;DHT22;4998;51.024;13.828;2022-10-31T15:28:26;21.50;86.70
9919;DHT22;4998;51.024;13.828;2022-10-31T15:30:56;21.50;86.80
9919;DHT22;4998;51.024;13.828;2022-10-31T15:33:25;21.40;86.80
9919;DHT22;4998;51.024;13.828;2022-10-31T15:35:56;21.30;87.00
9919;DHT22;4998;51.024;13.828;2022-10-31T15:38:24;21.20;86.90
9919;DHT22;4998;51.024;13.828;2022-10-31T15:40:54;21.20;87.00
9919;DHT22;4998;51.024;13.828;2022-10-31T15:43:21;21.10;87.10
9919;DHT22;4998;51.024;13.828;2022-10-31T15:45:49;21.10;87.40
9919;DHT22;4998;51.024;13.828;2022-10-31T15:48:21;21.00;87.60
9919;DHT22;4998;51.024;13.828;2022-10-31T15:50:50;20.90;87.80
9919;DHT22;4998;51.024;13.828;2022-10-31T15:53:21;20.80;88.00
9919;DHT22;4998;51.024;13.828;2022-10-31T15:55:52;20.70;88.20
9919;DHT22;4998;51.024;13.828;2022-10-31T15:58:19;20.70;88.40
9919;DHT22;4998;51.024;13.828;2022-10-31T16:00:57;20.60;88.60
9919;DHT22;4998;51.024;13.828;2022-10-31T16:03:28;20.50;88.80
9919;DHT22;4998;51.024;13.828;2022-10-31T16:05:57;20.40;89.00
9919;DHT22;4998;51.024;13.828;2022-10-31T16:08:35;20.40;89.10
9919;DHT22;4998;51.024;13.828;2022-10-31T16:11:16;20.20;89.40